Nordic Stockholm — 2DKI2 — position and weather

sailwx.info

Track history (hours):
 
Tides and Currents Weather Stations Pressure Air Temp Water Temp Dewpoint Dewpoint Depression Visibility Wind Speed Wind Dir Waves Ship Positions

Nordic Stockholm

Last reported at 2014-May-28 09:26 UTC. Time now 2014-Jul-22 15:02 UTC.
Position S 34°15' E 017°60'.
Warning: this ship's position is 55 days out of date.

Length 180 m; draft 8.6 m.

Type: Cargo ship. MMSI: 235079725.

Date/timePositionNaut miles runAvg speedWind from/ knotsBaromVisibWave heightAir tempDewpointWater temp
2014-May-28 09:26S 34°15' E 017°60'10 9.2
2014-May-28 08:21S 34°21' E 018°10'8 8.7
2014-May-28 07:23S 34°25' E 018°18'15 7.9
2014-May-28 05:32S 34°32' E 018°34'8 8.3
2014-May-28 04:33S 34°36' E 018°43'8 7.6
2014-May-28 03:33S 34°39' E 018°52'62 8.6
2014-May-27 20:20S 34°57' E 020°04'23011.4
2014-May-27 00:11S 34°19' E 024°40'311.5
2014-May-26 23:56S 34°19' E 024°43'1311.1
2014-May-26 22:45S 34°16' E 024°59'1610.9
2014-May-26 21:19S 34°12' E 025°17'2111.1
2014-May-26 19:28S 34°08' E 025°41'510.8
2014-May-26 18:57S 34°07' E 025°48'20611.4
2014-May-26 00:57S 32°08' E 029°08'5414.6
2014-May-25 21:16S 31°30' E 029°53'6112.5
2014-May-25 16:21S 30°42' E 030°38'1011.6
2014-May-25 15:31S 30°34' E 030°44'2611.8
2014-May-25 13:17S 30°11' E 030°58'912.1
2014-May-25 12:33S 30°02' E 031°02'1212.5
2014-May-25 11:33S 29°52' E 031°10'8 7.7
2014-May-25 10:32S 29°44' E 031°10'0 0.0
2014-May-25 09:32S 29°44' E 031°10'0 0.0
2014-May-25 08:26S 29°44' E 031°10'0 0.0
2014-May-25 07:26S 29°44' E 031°10'0 0.1
2014-May-25 06:32S 29°44' E 031°10'0 0.0
2014-May-25 05:32S 29°44' E 031°10'0 0.0
2014-May-25 04:32S 29°44' E 031°10'0 0.0
2014-May-25 03:26S 29°44' E 031°10'0 0.0
2014-May-25 02:26S 29°44' E 031°10'0 0.0
2014-May-25 01:32S 29°44' E 031°10'0 0.0
2014-May-25 00:32S 29°44' E 031°10'0 0.0
2014-May-24 23:32S 29°44' E 031°10'0 0.0
2014-May-24 22:32S 29°44' E 031°10'0 0.0
2014-May-24 21:32S 29°44' E 031°10'0 0.0
2014-May-24 20:32S 29°44' E 031°10'0 0.0
2014-May-24 19:32S 29°44' E 031°10'0 0.0
2014-May-24 18:32S 29°44' E 031°10'0 0.0
2014-May-24 17:32S 29°44' E 031°10'0 0.0
2014-May-24 16:32S 29°44' E 031°10'0 0.1
2014-May-24 15:32S 29°44' E 031°10'0 0.0
2014-May-24 13:32S 29°44' E 031°10'0 0.0
2014-May-24 12:32S 29°44' E 031°10'0 0.0
2014-May-24 11:32S 29°44' E 031°10'0 0.0
2014-May-24 10:32S 29°44' E 031°10'0 0.0
2014-May-24 09:26S 29°44' E 031°10'0 0.0
2014-May-24 08:32S 29°44' E 031°10'0 0.0
2014-May-24 07:26S 29°44' E 031°10'0 0.0
2014-May-24 06:26S 29°44' E 031°10'0 0.0
2014-May-24 05:32S 29°44' E 031°10'0 0.0
2014-May-24 04:32S 29°44' E 031°10'0 0.0
2014-May-24 03:32S 29°44' E 031°10'0 0.0
2014-May-24 02:32S 29°44' E 031°10'0 0.0
2014-May-24 01:32S 29°44' E 031°10'0 0.0
2014-May-24 00:32S 29°44' E 031°10'0 0.0
2014-May-23 23:32S 29°44' E 031°10'0 0.0
2014-May-23 22:26S 29°44' E 031°10'0 0.0
2014-May-23 21:32S 29°44' E 031°10'0 0.0
2014-May-23 20:32S 29°44' E 031°10'0 0.0
2014-May-23 19:32S 29°44' E 031°10'0 0.0
2014-May-23 18:32S 29°44' E 031°10'0 0.0
2014-May-23 17:32S 29°44' E 031°10'0 0.0
2014-May-23 16:32S 29°44' E 031°10'0 0.0
2014-May-23 15:20S 29°44' E 031°10'0 0.0
2014-May-23 14:32S 29°44' E 031°10'0 0.0
2014-May-23 13:32S 29°44' E 031°10'0 0.0
2014-May-23 12:32S 29°44' E 031°10'0 0.0
2014-May-23 11:32S 29°44' E 031°10'0 0.0
2014-May-23 10:32S 29°44' E 031°10'0 0.0
2014-May-23 09:32S 29°44' E 031°10'0 0.0
2014-May-23 08:33S 29°44' E 031°10'6 6.1
2014-May-23 07:33S 29°50' E 031°07'6 5.9
2014-May-23 06:31S 29°52' E 031°01'0 0.2
2014-May-23 05:31S 29°52' E 031°01'0 0.0
2014-May-23 04:31S 29°52' E 031°01'0 0.0
2014-May-23 03:31S 29°52' E 031°01'0 0.0
2014-May-23 02:25S 29°52' E 031°01'0 0.0
2014-May-23 00:31S 29°52' E 031°01'0 0.0
2014-May-22 23:31S 29°52' E 031°01'0 0.0
2014-May-22 22:31S 29°52' E 031°01'0 0.0
2014-May-22 21:31S 29°52' E 031°01'0 0.0
2014-May-22 20:31S 29°52' E 031°01'0 0.0
2014-May-22 19:31S 29°52' E 031°01'0 0.0
2014-May-22 18:31S 29°52' E 031°01'0 0.0
2014-May-22 17:31S 29°52' E 031°01'0 0.0
2014-May-22 16:31S 29°52' E 031°01'0 0.0
2014-May-22 15:31S 29°52' E 031°01'0 0.0
2014-May-22 14:31S 29°52' E 031°01'0 0.0
2014-May-22 13:32S 29°52' E 031°01'0 0.0
2014-May-22 11:32S 29°52' E 031°01'0 0.0
2014-May-22 10:32S 29°52' E 031°01'0 0.0
2014-May-22 02:32S 29°52' E 031°01'0 0.1
2014-May-22 01:33S 29°52' E 031°01'5 5.4
2014-May-22 00:33S 29°49' E 031°05'4 5.7
2014-May-21 23:46S 29°45' E 031°07'1 0.4
2014-May-21 22:25S 29°44' E 031°07'0 0.1
2014-May-21 21:31S 29°44' E 031°07'0 0.0
2014-May-21 20:31S 29°44' E 031°07'0 0.0
2014-May-21 19:31S 29°44' E 031°07'0 0.0
2014-May-21 18:31S 29°44' E 031°07'0 0.0
2014-May-21 16:31S 29°44' E 031°07'0 0.0
2014-May-21 15:31S 29°44' E 031°07'0 0.0
2014-May-21 14:31S 29°44' E 031°07'0 0.0
2014-May-21 12:31S 29°44' E 031°07'0 0.0
2014-May-21 11:31S 29°44' E 031°07'0 0.0
2014-May-21 10:31S 29°44' E 031°07'0 0.0
2014-May-21 09:31S 29°44' E 031°07'0 0.0
2014-May-21 08:31S 29°44' E 031°07'0 0.0
2014-May-21 07:31S 29°44' E 031°07'0 0.0
2014-May-21 06:31S 29°44' E 031°07'0 0.0
2014-May-21 05:31S 29°44' E 031°07'0 0.0
2014-May-21 04:31S 29°44' E 031°07'0 0.0
2014-May-21 03:31S 29°44' E 031°07'0 0.0
2014-May-21 02:31S 29°44' E 031°07'0 0.0
2014-May-21 01:31S 29°44' E 031°07'0 0.0
2014-May-21 00:31S 29°44' E 031°07'0 0.0
2014-May-20 23:31S 29°44' E 031°07'0 0.1
2014-May-20 22:31S 29°44' E 031°07'0 0.1
2014-May-20 21:31S 29°44' E 031°07'0 0.0
2014-May-20 20:31S 29°44' E 031°07'0 0.0
2014-May-20 19:31S 29°44' E 031°07'0 0.2
2014-May-20 18:25S 29°44' E 031°07'0 0.1
2014-May-20 17:31S 29°44' E 031°07'0 0.1
2014-May-20 16:25S 29°44' E 031°07'3 3.9
2014-May-20 15:33S 29°48' E 031°08'1212.2
2014-May-20 14:33S 29°59' E 031°04'1414.0
2014-May-20 13:33S 30°11' E 030°56'1313.4
2014-May-20 12:33S 30°23' E 030°48'1412.3
2014-May-20 11:27S 30°35' E 030°41'7110.2
2014-May-20 04:33S 31°34' E 029°55'  
Track history (hours):
 
Tides and Currents Weather Stations Pressure Air Temp Water Temp Dewpoint Dewpoint Depression Visibility Wind Speed Wind Dir Waves Ship Positions

Nordic Stockholm

Last reported at 2014-May-28 09:26 UTC. Time now 2014-Jul-22 15:02 UTC.
Position S 34°15' E 017°60'.
Warning: this ship's position is 55 days out of date.

Length 180 m; draft 8.6 m.

Type: Cargo ship. MMSI: 235079725.

Date/timePositionNaut miles runAvg speedWind from/ knotsBaromVisibWave heightAir tempDewpointWater temp
2014-May-28 09:26S 34°15' E 017°60'10 9.2
2014-May-28 08:21S 34°21' E 018°10'8 8.7
2014-May-28 07:23S 34°25' E 018°18'15 7.9
2014-May-28 05:32S 34°32' E 018°34'8 8.3
2014-May-28 04:33S 34°36' E 018°43'8 7.6
2014-May-28 03:33S 34°39' E 018°52'62 8.6
2014-May-27 20:20S 34°57' E 020°04'23011.4
2014-May-27 00:11S 34°19' E 024°40'311.5
2014-May-26 23:56S 34°19' E 024°43'1311.1
2014-May-26 22:45S 34°16' E 024°59'1610.9
2014-May-26 21:19S 34°12' E 025°17'2111.1
2014-May-26 19:28S 34°08' E 025°41'510.8
2014-May-26 18:57S 34°07' E 025°48'20611.4
2014-May-26 00:57S 32°08' E 029°08'5414.6
2014-May-25 21:16S 31°30' E 029°53'6112.5
2014-May-25 16:21S 30°42' E 030°38'1011.6
2014-May-25 15:31S 30°34' E 030°44'2611.8
2014-May-25 13:17S 30°11' E 030°58'912.1
2014-May-25 12:33S 30°02' E 031°02'1212.5
2014-May-25 11:33S 29°52' E 031°10'8 7.7
2014-May-25 10:32S 29°44' E 031°10'0 0.0
2014-May-25 09:32S 29°44' E 031°10'0 0.0
2014-May-25 08:26S 29°44' E 031°10'0 0.0
2014-May-25 07:26S 29°44' E 031°10'0 0.1
2014-May-25 06:32S 29°44' E 031°10'0 0.0
2014-May-25 05:32S 29°44' E 031°10'0 0.0
2014-May-25 04:32S 29°44' E 031°10'0 0.0
2014-May-25 03:26S 29°44' E 031°10'0 0.0
2014-May-25 02:26S 29°44' E 031°10'0 0.0
2014-May-25 01:32S 29°44' E 031°10'0 0.0
2014-May-25 00:32S 29°44' E 031°10'0 0.0
2014-May-24 23:32S 29°44' E 031°10'0 0.0
2014-May-24 22:32S 29°44' E 031°10'0 0.0
2014-May-24 21:32S 29°44' E 031°10'0 0.0
2014-May-24 20:32S 29°44' E 031°10'0 0.0
2014-May-24 19:32S 29°44' E 031°10'0 0.0
2014-May-24 18:32S 29°44' E 031°10'0 0.0
2014-May-24 17:32S 29°44' E 031°10'0 0.0
2014-May-24 16:32S 29°44' E 031°10'0 0.1
2014-May-24 15:32S 29°44' E 031°10'0 0.0
2014-May-24 13:32S 29°44' E 031°10'0 0.0
2014-May-24 12:32S 29°44' E 031°10'0 0.0
2014-May-24 11:32S 29°44' E 031°10'0 0.0
2014-May-24 10:32S 29°44' E 031°10'0 0.0
2014-May-24 09:26S 29°44' E 031°10'0 0.0
2014-May-24 08:32S 29°44' E 031°10'0 0.0
2014-May-24 07:26S 29°44' E 031°10'0 0.0
2014-May-24 06:26S 29°44' E 031°10'0 0.0
2014-May-24 05:32S 29°44' E 031°10'0 0.0
2014-May-24 04:32S 29°44' E 031°10'0 0.0
2014-May-24 03:32S 29°44' E 031°10'0 0.0
2014-May-24 02:32S 29°44' E 031°10'0 0.0
2014-May-24 01:32S 29°44' E 031°10'0 0.0
2014-May-24 00:32S 29°44' E 031°10'0 0.0
2014-May-23 23:32S 29°44' E 031°10'0 0.0
2014-May-23 22:26S 29°44' E 031°10'0 0.0
2014-May-23 21:32S 29°44' E 031°10'0 0.0
2014-May-23 20:32S 29°44' E 031°10'0 0.0
2014-May-23 19:32S 29°44' E 031°10'0 0.0
2014-May-23 18:32S 29°44' E 031°10'0 0.0
2014-May-23 17:32S 29°44' E 031°10'0 0.0
2014-May-23 16:32S 29°44' E 031°10'0 0.0
2014-May-23 15:20S 29°44' E 031°10'0 0.0
2014-May-23 14:32S 29°44' E 031°10'0 0.0
2014-May-23 13:32S 29°44' E 031°10'0 0.0
2014-May-23 12:32S 29°44' E 031°10'0 0.0
2014-May-23 11:32S 29°44' E 031°10'0 0.0
2014-May-23 10:32S 29°44' E 031°10'0 0.0
2014-May-23 09:32S 29°44' E 031°10'0 0.0
2014-May-23 08:33S 29°44' E 031°10'6 6.1
2014-May-23 07:33S 29°50' E 031°07'6 5.9
2014-May-23 06:31S 29°52' E 031°01'0 0.2
2014-May-23 05:31S 29°52' E 031°01'0 0.0
2014-May-23 04:31S 29°52' E 031°01'0 0.0
2014-May-23 03:31S 29°52' E 031°01'0 0.0
2014-May-23 02:25S 29°52' E 031°01'0 0.0
2014-May-23 00:31S 29°52' E 031°01'0 0.0
2014-May-22 23:31S 29°52' E 031°01'0 0.0
2014-May-22 22:31S 29°52' E 031°01'0 0.0
2014-May-22 21:31S 29°52' E 031°01'0 0.0
2014-May-22 20:31S 29°52' E 031°01'0 0.0
2014-May-22 19:31S 29°52' E 031°01'0 0.0
2014-May-22 18:31S 29°52' E 031°01'0 0.0
2014-May-22 17:31S 29°52' E 031°01'0 0.0
2014-May-22 16:31S 29°52' E 031°01'0 0.0
2014-May-22 15:31S 29°52' E 031°01'0 0.0
2014-May-22 14:31S 29°52' E 031°01'0 0.0
2014-May-22 13:32S 29°52' E 031°01'0 0.0
2014-May-22 11:32S 29°52' E 031°01'0 0.0
2014-May-22 10:32S 29°52' E 031°01'0 0.0
2014-May-22 02:32S 29°52' E 031°01'0 0.1
2014-May-22 01:33S 29°52' E 031°01'5 5.4
2014-May-22 00:33S 29°49' E 031°05'4 5.7
2014-May-21 23:46S 29°45' E 031°07'1 0.4
2014-May-21 22:25S 29°44' E 031°07'0 0.1
2014-May-21 21:31S 29°44' E 031°07'0 0.0
2014-May-21 20:31S 29°44' E 031°07'0 0.0
2014-May-21 19:31S 29°44' E 031°07'0 0.0
2014-May-21 18:31S 29°44' E 031°07'0 0.0
2014-May-21 16:31S 29°44' E 031°07'0 0.0
2014-May-21 15:31S 29°44' E 031°07'0 0.0
2014-May-21 14:31S 29°44' E 031°07'0 0.0
2014-May-21 12:31S 29°44' E 031°07'0 0.0
2014-May-21 11:31S 29°44' E 031°07'0 0.0
2014-May-21 10:31S 29°44' E 031°07'0 0.0
2014-May-21 09:31S 29°44' E 031°07'0 0.0
2014-May-21 08:31S 29°44' E 031°07'0 0.0
2014-May-21 07:31S 29°44' E 031°07'0 0.0
2014-May-21 06:31S 29°44' E 031°07'0 0.0
2014-May-21 05:31S 29°44' E 031°07'0 0.0
2014-May-21 04:31S 29°44' E 031°07'0 0.0
2014-May-21 03:31S 29°44' E 031°07'0 0.0
2014-May-21 02:31S 29°44' E 031°07'0 0.0
2014-May-21 01:31S 29°44' E 031°07'0 0.0
2014-May-21 00:31S 29°44' E 031°07'0 0.0
2014-May-20 23:31S 29°44' E 031°07'0 0.1
2014-May-20 22:31S 29°44' E 031°07'0 0.1
2014-May-20 21:31S 29°44' E 031°07'0 0.0
2014-May-20 20:31S 29°44' E 031°07'0 0.0
2014-May-20 19:31S 29°44' E 031°07'0 0.2
2014-May-20 18:25S 29°44' E 031°07'0 0.1
2014-May-20 17:31S 29°44' E 031°07'0 0.1
2014-May-20 16:25S 29°44' E 031°07'3 3.9
2014-May-20 15:33S 29°48' E 031°08'1212.2
2014-May-20 14:33S 29°59' E 031°04'1414.0
2014-May-20 13:33S 30°11' E 030°56'1313.4
2014-May-20 12:33S 30°23' E 030°48'1412.3
2014-May-20 11:27S 30°35' E 030°41'7110.2
2014-May-20 04:33S 31°34' E 029°55'  

Dump ship's entire track history